Weather at San Martin Airport

Public forecast

Using degrees Fahrenheit for public forecast. Weather courtesy of forecast.io.

Current aviation weather report (METAR) for San Martin Airport

Retrieved UTC (0 seconds ago):

Closest aviation forecast (TAF) to San Martin Airport

Closest forecast is Norman Y. Mineta San Jose International Airport, 23.2 nm (42.9 km) NW. Retrieved 2020/11/28 06:33 UTC (53 minutes ago):

TAF KSJC 280530Z 2806/2906 VRB03KT P6SM SKC FM280900 00000KT P6SM SKC FM281900 VRB03KT P6SM SKC FM282200 32005KT P6SM SKC FM290300 VRB03KT P6SM SKC